Time;durP1;ratioP1;P1;durP2;ratioP2;P2;SDS_P1;SDS_P2;PMS_P1;PMS_P2;Temp;Humidity;BMP_temperature;BMP_pressure;BME280_temperature;BME280_humidity;BME280_pressure;Samples;Min_cycle;Max_cycle;Signal;HPM_P1;HPM_P2
2022/10/11 00:01:58;;;;;;;7.47;5.13;;;15.10;83.10;;;;;;5051767;28;20190;-76
2022/10/11 00:04:24;;;;;;;5.90;5.40;;;15.20;82.40;;;;;;5051313;28;20183;-77
2022/10/11 00:06:49;;;;;;;7.30;5.18;;;15.10;83.20;;;;;;5053127;28;20179;-76
2022/10/11 00:09:15;;;;;;;7.30;5.57;;;15.10;83.20;;;;;;5043119;28;20183;-76
2022/10/11 00:11:42;;;;;;;6.50;5.40;;;15.10;83.50;;;;;;5048130;28;20569;-76
2022/10/11 00:14:07;;;;;;;5.78;5.28;;;15.10;83.20;;;;;;5048962;28;20180;-76
2022/10/11 00:16:33;;;;;;;6.18;5.57;;;15.10;83.80;;;;;;5052917;28;20198;-76
2022/10/11 00:18:59;;;;;;;7.05;5.30;;;15.10;83.90;;;;;;5053508;28;20262;-76
2022/10/11 00:21:25;;;;;;;6.18;5.57;;;15.00;83.70;;;;;;5055025;28;20236;-76
2022/10/11 00:23:51;;;;;;;8.40;5.68;;;15.00;83.70;;;;;;5054605;28;20875;-75
2022/10/11 00:26:17;;;;;;;5.82;5.28;;;15.10;84.00;;;;;;5055059;28;20242;-75
2022/10/11 00:28:43;;;;;;;9.68;6.60;;;15.00;83.80;;;;;;5047438;28;20290;-76
2022/10/11 00:31:12;;;;;;;9.27;5.78;;;15.00;83.50;;;;;;5052293;28;20190;-75
2022/10/11 00:33:38;;;;;;;7.05;6.45;;;15.00;83.60;;;;;;5052956;28;20641;-76
2022/10/11 00:36:05;;;;;;;6.05;5.45;;;15.00;83.80;;;;;;5048036;28;20835;-75
2022/10/11 00:38:30;;;;;;;7.07;6.10;;;15.00;84.20;;;;;;5052718;28;20268;-76
2022/10/11 00:40:56;;;;;;;6.40;5.78;;;15.00;84.00;;;;;;5044902;28;20267;-76
2022/10/11 00:43:26;;;;;;;7.35;6.35;;;14.90;84.10;;;;;;5051408;28;20212;-76
2022/10/11 00:45:58;;;;;;;6.82;6.22;;;14.90;84.70;;;;;;5054150;28;20816;-76
2022/10/11 00:48:39;;;;;;;9.63;6.10;;;14.90;83.60;;;;;;5047830;28;20654;-76
2022/10/11 00:51:15;;;;;;;13.88;6.78;;;14.90;84.50;;;;;;5051888;28;20193;-77
2022/10/11 00:53:42;;;;;;;8.32;6.10;;;14.80;85.10;;;;;;5049564;28;20187;-76
2022/10/11 00:56:15;;;;;;;10.02;6.57;;;14.90;84.70;;;;;;5051786;28;20187;-76
2022/10/11 00:58:42;;;;;;;8.70;6.43;;;14.80;84.60;;;;;;5052385;28;20215;-76
2022/10/11 01:01:08;;;;;;;9.88;6.22;;;14.80;84.00;;;;;;5054562;28;20184;-76
2022/10/11 01:03:36;;;;;;;8.38;7.00;;;14.90;84.40;;;;;;5049268;28;20715;-76
2022/10/11 01:06:02;;;;;;;11.43;7.03;;;14.70;85.30;;;;;;5055400;28;20171;-76
2022/10/11 01:08:28;;;;;;;7.25;6.30;;;14.70;85.50;;;;;;5051445;28;20207;-76
2022/10/11 01:10:55;;;;;;;8.10;6.03;;;14.70;85.20;;;;;;5054911;28;20180;-76
2022/10/11 01:14:01;;;;;;;6.90;6.10;;;14.70;84.40;;;;;;5045328;28;20250;-76
2022/10/11 01:16:38;;;;;;;9.90;6.75;;;14.80;84.20;;;;;;5055141;28;20182;-75
2022/10/11 01:19:18;;;;;;;7.32;6.55;;;14.70;84.50;;;;;;5049706;28;20728;-76
2022/10/11 01:21:56;;;;;;;8.73;6.60;;;14.60;85.20;;;;;;5049961;28;20194;-75
2022/10/11 01:24:40;;;;;;;9.82;6.97;;;14.60;85.80;;;;;;5056526;28;20745;-75
2022/10/11 01:27:12;;;;;;;7.65;6.82;;;14.60;85.50;;;;;;5052380;28;20179;-76
2022/10/11 01:30:03;;;;;;;8.80;6.15;;;14.60;84.90;;;;;;5053514;28;20213;-76
2022/10/11 01:32:57;;;;;;;6.65;6.10;;;14.60;84.20;;;;;;5050072;28;20188;-76
2022/10/11 01:35:37;;;;;;;7.97;6.88;;;14.50;85.70;;;;;;5046543;28;20183;-75
2022/10/11 01:38:13;;;;;;;6.88;6.28;;;14.50;85.10;;;;;;5049917;28;20213;-75
2022/10/11 01:40:47;;;;;;;7.53;6.35;;;14.50;85.00;;;;;;5051706;28;20946;-75
2022/10/11 01:43:14;;;;;;;8.68;6.63;;;14.50;85.00;;;;;;5051707;28;20624;-75
2022/10/11 01:45:42;;;;;;;8.05;7.15;;;14.50;85.40;;;;;;5050452;28;20206;-75
2022/10/11 01:48:12;;;;;;;8.63;6.90;;;14.50;84.90;;;;;;5048300;28;20180;-75
2022/10/11 01:50:47;;;;;;;6.75;6.15;;;14.50;85.10;;;;;;5048758;28;20187;-76
2022/10/11 01:53:38;;;;;;;8.73;7.18;;;14.50;85.40;;;;;;5051595;28;20233;-75
2022/10/11 01:56:20;;;;;;;7.78;6.88;;;14.40;86.20;;;;;;5050384;28;20632;-76
2022/10/11 01:59:04;;;;;;;7.43;6.53;;;14.40;86.10;;;;;;5050105;28;20179;-75
2022/10/11 02:01:43;;;;;;;7.20;6.50;;;14.30;85.80;;;;;;5050374;28;20179;-75
2022/10/11 02:04:36;;;;;;;7.97;6.47;;;14.30;86.00;;;;;;5045407;28;20825;-76
2022/10/11 02:07:07;;;;;;;8.43;6.88;;;14.40;85.40;;;;;;5042761;28;20195;-75
2022/10/11 02:09:48;;;;;;;7.82;7.13;;;14.30;86.10;;;;;;5046377;28;20198;-75
2022/10/11 02:12:26;;;;;;;8.20;7.07;;;14.30;86.30;;;;;;5043013;28;20729;-76
2022/10/11 02:14:55;;;;;;;11.93;7.70;;;14.30;86.50;;;;;;5054367;28;20300;-76
2022/10/11 02:17:27;;;;;;;10.68;7.65;;;14.30;86.10;;;;;;5051744;28;20181;-76
2022/10/11 02:19:55;;;;;;;10.05;7.95;;;14.20;86.70;;;;;;5048742;28;20585;-77
2022/10/11 02:22:26;;;;;;;6.63;6.00;;;14.20;86.80;;;;;;5048705;28;20246;-75
2022/10/11 02:24:56;;;;;;;8.50;7.15;;;14.20;86.30;;;;;;5047943;28;20175;-75
2022/10/11 02:27:26;;;;;;;9.05;6.63;;;14.10;87.00;;;;;;5048799;28;20187;-75
2022/10/11 02:29:54;;;;;;;9.48;7.35;;;14.00;87.50;;;;;;5052168;28;20266;-74
2022/10/11 02:32:22;;;;;;;9.35;7.10;;;14.10;86.80;;;;;;5049921;28;20183;-75
2022/10/11 02:34:59;;;;;;;11.38;7.60;;;14.10;87.00;;;;;;5059812;28;20195;-74
2022/10/11 02:37:31;;;;;;;9.85;7.05;;;14.00;87.40;;;;;;5051240;28;20666;-75
2022/10/11 02:40:09;;;;;;;8.57;7.18;;;13.90;87.60;;;;;;5054457;28;20176;-75
2022/10/11 02:42:43;;;;;;;8.93;6.55;;;14.00;87.40;;;;;;5049572;28;20237;-74
2022/10/11 02:45:24;;;;;;;12.52;7.97;;;13.90;87.90;;;;;;5058211;28;20187;-76
2022/10/11 02:47:50;;;;;;;9.98;7.15;;;13.90;87.70;;;;;;5055758;28;20182;-76
2022/10/11 02:50:16;;;;;;;10.20;7.43;;;13.90;88.00;;;;;;5056326;28;20187;-77
2022/10/11 02:52:42;;;;;;;8.68;7.32;;;13.80;88.60;;;;;;5050735;28;20176;-76
2022/10/11 02:55:08;;;;;;;11.88;7.15;;;13.90;87.80;;;;;;5047736;28;20265;-75
2022/10/11 02:57:34;;;;;;;8.88;6.97;;;13.90;88.00;;;;;;5044437;28;20278;-76
2022/10/11 02:59:59;;;;;;;11.55;7.30;;;13.90;88.10;;;;;;5050551;28;20807;-75
2022/10/11 03:02:25;;;;;;;11.35;7.60;;;13.90;88.10;;;;;;5044895;28;20322;-75
2022/10/11 03:04:51;;;;;;;9.48;7.68;;;13.90;88.10;;;;;;5047613;28;20581;-75
2022/10/11 03:07:17;;;;;;;9.73;7.45;;;13.90;87.90;;;;;;5049883;28;20235;-75
2022/10/11 03:09:43;;;;;;;13.10;7.43;;;13.90;87.80;;;;;;5051654;28;20236;-75
2022/10/11 03:12:09;;;;;;;8.98;6.40;;;13.90;88.00;;;;;;5050712;28;20246;-75
2022/10/11 03:14:35;;;;;;;9.00;7.07;;;13.90;87.90;;;;;;5048636;28;20267;-75
2022/10/11 03:17:00;;;;;;;11.20;7.63;;;13.90;87.90;;;;;;5045333;28;20259;-74
2022/10/11 03:19:26;;;;;;;8.93;6.95;;;13.90;88.50;;;;;;5048826;28;20214;-76
2022/10/11 03:21:52;;;;;;;10.80;7.78;;;13.90;88.10;;;;;;5049551;28;20180;-76
2022/10/11 03:24:17;;;;;;;9.48;7.32;;;13.90;87.90;;;;;;5047388;28;20202;-74
2022/10/11 03:26:43;;;;;;;11.52;7.47;;;13.90;87.70;;;;;;5045769;28;20188;-75
2022/10/11 03:29:09;;;;;;;11.20;7.85;;;13.90;87.90;;;;;;5051829;28;20194;-76
2022/10/11 03:31:35;;;;;;;10.65;6.95;;;14.00;87.50;;;;;;5049156;28;20215;-75
2022/10/11 03:34:00;;;;;;;11.18;7.45;;;14.00;88.00;;;;;;5050962;28;20183;-74
2022/10/11 03:36:26;;;;;;;10.10;7.15;;;13.90;87.60;;;;;;5049713;28;20563;-74
2022/10/11 03:38:52;;;;;;;11.15;7.43;;;14.00;87.70;;;;;;5044894;28;20219;-75
2022/10/11 03:41:18;;;;;;;11.52;7.35;;;13.90;87.90;;;;;;5043165;28;20256;-75
2022/10/11 03:43:43;;;;;;;10.13;7.10;;;14.00;88.10;;;;;;5051452;28;20576;-75
2022/10/11 03:46:09;;;;;;;8.90;6.88;;;14.00;87.60;;;;;;5055225;28;20245;-76
2022/10/11 03:48:35;;;;;;;7.75;6.68;;;14.00;87.80;;;;;;5047709;28;20562;-76
2022/10/11 03:51:00;;;;;;;9.30;7.32;;;14.00;88.10;;;;;;5047404;28;20594;-76
2022/10/11 03:53:26;;;;;;;9.38;7.20;;;13.90;88.00;;;;;;5050728;28;20195;-74
2022/10/11 03:55:53;;;;;;;11.18;7.50;;;13.90;88.10;;;;;;5048412;28;20199;-75
2022/10/11 03:58:19;;;;;;;9.30;6.85;;;13.90;88.10;;;;;;5050881;28;20183;-75
2022/10/11 04:00:45;;;;;;;9.02;6.20;;;13.90;87.60;;;;;;5062605;28;20194;-76
2022/10/11 04:03:11;;;;;;;10.93;6.30;;;14.00;87.70;;;;;;5054034;28;20745;-75
2022/10/11 04:05:37;;;;;;;9.18;7.07;;;14.00;87.90;;;;;;5058528;28;20179;-75
2022/10/11 04:08:03;;;;;;;7.88;7.07;;;14.00;88.30;;;;;;5057117;28;20183;-74
2022/10/11 04:10:30;;;;;;;8.80;6.40;;;14.00;88.10;;;;;;5055794;28;20262;-75
2022/10/11 04:12:56;;;;;;;8.50;6.88;;;14.00;87.50;;;;;;5052970;28;20194;-74
2022/10/11 04:15:22;;;;;;;8.25;6.47;;;14.10;87.30;;;;;;5049870;28;20179;-75
2022/10/11 04:17:48;;;;;;;8.35;6.72;;;14.10;87.50;;;;;;5052753;28;20181;-75
2022/10/11 04:20:13;;;;;;;8.05;6.40;;;14.10;87.30;;;;;;5050842;28;20203;-75
2022/10/11 04:22:39;;;;;;;8.60;6.43;;;14.20;87.10;;;;;;5063790;28;20754;-77
2022/10/11 04:25:06;;;;;;;9.07;7.15;;;14.10;87.50;;;;;;5058674;28;20187;-79
2022/10/11 04:27:32;;;;;;;10.10;6.72;;;14.00;87.50;;;;;;5055809;28;20214;-76
2022/10/11 04:29:58;;;;;;;11.32;7.07;;;14.10;87.30;;;;;;5054416;28;20182;-78
2022/10/11 04:32:23;;;;;;;11.75;6.57;;;14.10;87.40;;;;;;5050525;28;21022;-75
2022/10/11 04:34:50;;;;;;;9.73;7.35;;;14.10;87.30;;;;;;5048768;28;20172;-76
2022/10/11 04:37:16;;;;;;;8.52;5.82;;;14.20;87.30;;;;;;5046154;28;20279;-74
2022/10/11 04:39:42;;;;;;;11.23;7.43;;;14.10;87.40;;;;;;5046400;28;20815;-75
2022/10/11 04:42:08;;;;;;;25.02;6.78;;;14.10;87.30;;;;;;5047009;28;20199;-75
2022/10/11 04:44:33;;;;;;;8.82;6.95;;;14.10;87.50;;;;;;5048483;28;20203;-75
2022/10/11 04:46:59;;;;;;;8.48;6.65;;;14.10;87.70;;;;;;5043299;28;20668;-77
2022/10/11 04:49:25;;;;;;;8.25;6.15;;;14.10;87.60;;;;;;5056952;28;20190;-76
2022/10/11 04:51:51;;;;;;;9.30;6.65;;;14.00;87.40;;;;;;5061984;28;20198;-76
2022/10/11 04:54:17;;;;;;;10.00;6.57;;;14.10;87.90;;;;;;5066047;28;20180;-77
2022/10/11 04:56:42;;;;;;;8.65;6.45;;;14.10;87.40;;;;;;5060765;28;20187;-78
2022/10/11 04:59:08;;;;;;;13.05;6.82;;;14.20;87.00;;;;;;5058411;28;20279;-78
2022/10/11 05:01:34;;;;;;;10.77;7.05;;;14.20;87.00;;;;;;5052425;28;20184;-76
2022/10/11 05:04:00;;;;;;;9.80;6.68;;;14.20;87.10;;;;;;5052939;28;20687;-77
2022/10/11 05:06:25;;;;;;;8.75;6.45;;;14.30;86.90;;;;;;5046589;28;20672;-77
2022/10/11 05:08:51;;;;;;;9.60;6.15;;;14.30;86.70;;;;;;5054500;28;20183;-77
2022/10/11 05:11:17;;;;;;;14.07;6.75;;;14.30;87.00;;;;;;5051467;28;20666;-74
2022/10/11 05:13:44;;;;;;;7.93;6.35;;;14.40;87.00;;;;;;5056543;28;20202;-74
2022/10/11 05:16:10;;;;;;;10.18;6.78;;;14.40;86.50;;;;;;5057953;28;20189;-74
2022/10/11 05:18:35;;;;;;;10.60;6.78;;;14.40;87.00;;;;;;5052079;28;20175;-74
2022/10/11 05:21:13;;;;;;;9.95;6.18;;;14.40;87.40;;;;;;5059950;28;20636;-74
2022/10/11 05:23:39;;;;;;;10.15;6.53;;;14.30;87.90;;;;;;5061069;28;20214;-74
2022/10/11 05:26:05;;;;;;;9.15;6.50;;;14.30;87.30;;;;;;5055989;28;20191;-73
2022/10/11 05:28:31;;;;;;;8.85;5.90;;;14.30;87.20;;;;;;5060945;28;20170;-74
2022/10/11 05:30:57;;;;;;;10.55;6.22;;;14.40;87.90;;;;;;5055385;28;20626;-73
2022/10/11 05:33:23;;;;;;;9.05;6.25;;;14.30;88.20;;;;;;5054489;28;20187;-73
2022/10/11 05:35:49;;;;;;;8.43;5.93;;;14.30;88.10;;;;;;5057136;28;20183;-74
2022/10/11 05:38:15;;;;;;;10.50;6.18;;;14.30;88.00;;;;;;5058320;28;20184;-75
2022/10/11 05:40:40;;;;;;;8.55;5.72;;;14.30;87.60;;;;;;5061420;28;20633;-74
2022/10/11 05:43:06;;;;;;;7.03;6.15;;;14.40;87.80;;;;;;5053582;28;20329;-74
2022/10/11 05:45:40;;;;;;;6.82;5.60;;;14.30;88.20;;;;;;5054217;28;20720;-74
2022/10/11 05:48:05;;;;;;;11.00;6.03;;;14.30;87.40;;;;;;5054146;28;20175;-74
2022/10/11 05:50:31;;;;;;;8.30;5.97;;;14.40;87.50;;;;;;5043704;28;20228;-75
2022/10/11 05:52:57;;;;;;;8.02;5.85;;;14.40;87.50;;;;;;5040498;28;20202;-75
2022/10/11 05:55:23;;;;;;;6.57;5.43;;;14.50;88.10;;;;;;5050585;28;20187;-75
2022/10/11 05:57:55;;;;;;;7.38;5.20;;;14.50;87.40;;;;;;5046732;28;20248;-75
2022/10/11 06:00:21;;;;;;;8.57;5.88;;;14.60;87.30;;;;;;5047874;28;20679;-74
2022/10/11 06:02:47;;;;;;;7.55;5.85;;;14.70;87.40;;;;;;5053724;28;20207;-75
2022/10/11 06:05:13;;;;;;;6.90;5.15;;;14.80;87.40;;;;;;5054512;28;20550;-75
2022/10/11 06:07:39;;;;;;;8.88;5.57;;;14.80;86.90;;;;;;5050103;28;20180;-75
2022/10/11 06:10:05;;;;;;;11.18;6.43;;;14.90;86.50;;;;;;5044243;28;20675;-75
2022/10/11 06:12:31;;;;;;;8.35;6.00;;;14.90;86.60;;;;;;5050436;28;20188;-74
2022/10/11 06:14:57;;;;;;;7.85;5.70;;;15.00;86.20;;;;;;5047807;28;20616;-74
2022/10/11 06:17:23;;;;;;;9.32;5.88;;;15.00;86.70;;;;;;5053848;28;20201;-74
2022/10/11 06:19:49;;;;;;;5.82;5.25;;;15.00;86.30;;;;;;5049192;28;20708;-74
2022/10/11 06:22:16;;;;;;;6.30;5.68;;;15.00;86.10;;;;;;5050555;28;20925;-74
2022/10/11 06:24:41;;;;;;;10.02;6.32;;;15.10;86.20;;;;;;5048981;28;20618;-76
2022/10/11 06:27:07;;;;;;;5.93;5.15;;;15.00;85.70;;;;;;5053938;28;20280;-75
2022/10/11 06:29:33;;;;;;;5.72;5.15;;;15.10;85.80;;;;;;5043515;28;20208;-75
2022/10/11 06:31:59;;;;;;;8.05;6.43;;;15.10;85.70;;;;;;5048443;28;20179;-75
2022/10/11 06:34:25;;;;;;;12.95;6.93;;;15.20;85.50;;;;;;5052441;28;20187;-75
2022/10/11 06:36:51;;;;;;;9.15;7.28;;;15.20;85.80;;;;;;5047155;28;20187;-74
2022/10/11 06:39:17;;;;;;;13.07;7.68;;;15.20;86.00;;;;;;5049257;28;20278;-75
2022/10/11 06:41:42;;;;;;;13.63;7.45;;;15.30;86.10;;;;;;5048066;28;20262;-74
2022/10/11 06:44:13;;;;;;;14.32;8.15;;;15.30;86.20;;;;;;5048975;28;20215;-75
2022/10/11 06:46:39;;;;;;;13.63;7.32;;;15.30;85.80;;;;;;5052362;28;20665;-75
2022/10/11 06:49:06;;;;;;;11.98;7.05;;;15.30;86.10;;;;;;5049123;28;20180;-76
2022/10/11 06:51:34;;;;;;;9.55;7.28;;;15.30;86.10;;;;;;5048745;28;20188;-75
2022/10/11 06:54:00;;;;;;;11.80;7.72;;;15.40;85.80;;;;;;5049495;28;20643;-75
2022/10/11 06:56:28;;;;;;;14.40;7.78;;;15.40;85.60;;;;;;5051033;28;20176;-75
2022/10/11 06:58:55;;;;;;;10.95;7.65;;;15.40;85.60;;;;;;5051138;28;20190;-75
2022/10/11 07:01:22;;;;;;;10.13;7.75;;;15.50;86.40;;;;;;5047610;28;20787;-75
2022/10/11 07:03:49;;;;;;;17.73;7.82;;;15.50;86.30;;;;;;5042794;28;20237;-74
2022/10/11 07:06:24;;;;;;;12.27;7.13;;;15.50;86.00;;;;;;5047841;28;20676;-75
2022/10/11 07:08:51;;;;;;;15.98;8.73;;;15.60;85.80;;;;;;5048589;28;20294;-74
2022/10/11 07:11:22;;;;;;;11.18;7.28;;;15.50;86.60;;;;;;5043677;28;20215;-75
2022/10/11 07:13:52;;;;;;;13.98;7.55;;;15.60;86.20;;;;;;5048654;28;20639;-74
2022/10/11 07:16:19;;;;;;;9.00;7.00;;;15.60;85.70;;;;;;5050398;28;20194;-76
2022/10/11 07:18:45;;;;;;;10.93;7.25;;;15.70;86.00;;;;;;5049071;28;20766;-74
2022/10/11 07:21:13;;;;;;;11.80;7.20;;;15.70;85.80;;;;;;5044339;28;20194;-74
2022/10/11 07:23:39;;;;;;;11.32;7.60;;;15.80;85.40;;;;;;5042935;28;20216;-76
2022/10/11 07:26:06;;;;;;;13.38;7.45;;;15.80;85.70;;;;;;5046890;28;20259;-75
2022/10/11 07:28:33;;;;;;;14.98;7.22;;;15.90;85.60;;;;;;5048657;28;20273;-75
2022/10/11 07:31:03;;;;;;;12.93;7.72;;;16.00;85.40;;;;;;5045397;28;20187;-75
2022/10/11 07:33:29;;;;;;;12.52;7.10;;;16.10;85.60;;;;;;5047079;28;20249;-76
2022/10/11 07:35:57;;;;;;;11.15;7.32;;;16.00;85.20;;;;;;5048515;28;20742;-75
2022/10/11 07:38:22;;;;;;;17.10;8.00;;;16.00;85.30;;;;;;5050985;28;20204;-75
2022/10/11 07:40:48;;;;;;;11.50;7.50;;;16.00;84.90;;;;;;5047714;28;20179;-75
2022/10/11 07:43:14;;;;;;;15.50;7.65;;;16.00;84.90;;;;;;5052497;28;20242;-75
2022/10/11 07:45:41;;;;;;;10.52;6.38;;;16.10;85.30;;;;;;5050833;28;20223;-75
2022/10/11 07:48:07;;;;;;;13.48;7.47;;;16.10;84.90;;;;;;5050619;28;20233;-75
2022/10/11 07:50:34;;;;;;;11.07;7.07;;;16.20;85.70;;;;;;5053188;28;20203;-75
2022/10/11 07:52:59;;;;;;;10.05;6.78;;;16.20;85.00;;;;;;5053223;28;20211;-75
2022/10/11 07:55:30;;;;;;;8.82;7.10;;;16.30;85.30;;;;;;5046368;28;20207;-75
2022/10/11 07:57:56;;;;;;;9.98;7.25;;;16.30;84.90;;;;;;5046873;28;20184;-74
2022/10/11 08:00:22;;;;;;;13.32;7.38;;;16.40;84.70;;;;;;5050884;28;20595;-74
2022/10/11 08:02:48;;;;;;;11.35;6.68;;;16.50;84.30;;;;;;5046770;28;20257;-75
2022/10/11 08:05:13;;;;;;;10.75;6.93;;;16.60;84.00;;;;;;5053606;28;20234;-75
2022/10/11 08:07:39;;;;;;;11.77;6.68;;;16.50;84.00;;;;;;5051352;28;20184;-74
2022/10/11 08:10:05;;;;;;;8.45;6.70;;;16.60;84.10;;;;;;5054364;28;20207;-75
2022/10/11 08:12:31;;;;;;;12.13;7.47;;;16.60;84.00;;;;;;5049074;28;20583;-74
2022/10/11 08:14:57;;;;;;;9.80;6.47;;;16.70;84.10;;;;;;5050601;28;20183;-74
2022/10/11 08:17:23;;;;;;;9.75;6.45;;;16.80;83.70;;;;;;5051897;28;20269;-74
2022/10/11 08:19:49;;;;;;;8.88;6.50;;;16.90;83.60;;;;;;5050536;28;20266;-74
2022/10/11 08:22:15;;;;;;;9.60;6.80;;;16.90;84.00;;;;;;5048722;28;20582;-76
2022/10/11 08:24:41;;;;;;;8.90;6.10;;;17.00;83.60;;;;;;5052719;28;20187;-73
2022/10/11 08:27:06;;;;;;;9.98;7.40;;;17.00;83.60;;;;;;5048100;28;20191;-75
2022/10/11 08:29:32;;;;;;;6.60;6.00;;;17.10;83.50;;;;;;5051799;28;20195;-75
2022/10/11 08:31:58;;;;;;;15.80;7.68;;;17.20;83.30;;;;;;5045774;28;20214;-73
2022/10/11 08:34:23;;;;;;;10.60;6.43;;;17.20;82.90;;;;;;5054180;28;20180;-74
2022/10/11 08:36:49;;;;;;;10.95;5.72;;;17.30;83.20;;;;;;5050839;28;20195;-73
2022/10/11 08:39:15;;;;;;;10.20;7.40;;;17.40;82.80;;;;;;5052533;28;20187;-73
2022/10/11 08:42:06;;;;;;;8.18;6.20;;;17.50;82.60;;;;;;5055821;28;20262;-73
2022/10/11 08:44:42;;;;;;;7.47;6.18;;;17.50;81.80;;;;;;5047944;28;20250;-73
2022/10/11 08:47:16;;;;;;;6.75;5.65;;;17.60;81.40;;;;;;5051740;28;20175;-73
2022/10/11 08:49:42;;;;;;;11.38;7.60;;;17.50;81.70;;;;;;5048014;28;20653;-73
2022/10/11 08:52:20;;;;;;;9.05;6.15;;;17.60;81.60;;;;;;5048752;28;20184;-73
2022/10/11 08:55:04;;;;;;;8.93;6.68;;;17.60;81.10;;;;;;5049279;28;20194;-73
2022/10/11 08:57:35;;;;;;;8.35;6.53;;;17.60;81.20;;;;;;5045962;28;20187;-73
2022/10/11 09:00:13;;;;;;;12.60;7.43;;;17.60;81.10;;;;;;5054741;28;20818;-74
2022/10/11 09:03:04;;;;;;;9.40;6.68;;;17.60;81.20;;;;;;5048770;28;20747;-73
2022/10/11 09:05:34;;;;;;;8.30;6.45;;;17.60;81.30;;;;;;5049644;28;20326;-74
2022/10/11 09:08:17;;;;;;;7.78;6.80;;;17.70;81.80;;;;;;5051829;28;20192;-75
2022/10/11 09:10:52;;;;;;;7.65;6.43;;;17.80;81.20;;;;;;5052492;28;20199;-74
2022/10/11 09:13:45;;;;;;;10.45;7.18;;;17.90;80.60;;;;;;5048729;28;20261;-74
2022/10/11 09:16:32;;;;;;;8.75;6.45;;;17.90;80.50;;;;;;5050453;28;20189;-74
2022/10/11 09:19:27;;;;;;;9.82;6.95;;;18.00;80.30;;;;;;5045959;28;20229;-74
2022/10/11 09:22:19;;;;;;;8.35;6.32;;;18.10;80.00;;;;;;5054749;28;20274;-74
2022/10/11 09:24:59;;;;;;;8.70;6.45;;;18.20;79.80;;;;;;5051493;28;20267;-74
2022/10/11 09:27:27;;;;;;;8.48;6.72;;;18.20;80.00;;;;;;5050204;28;21418;-75
2022/10/11 09:29:57;;;;;;;12.95;6.63;;;18.30;80.00;;;;;;5055863;28;20188;-74
2022/10/11 09:32:27;;;;;;;7.82;6.95;;;18.30;80.10;;;;;;5049448;28;20180;-74
2022/10/11 09:35:17;;;;;;;9.93;7.25;;;18.40;80.10;;;;;;5052072;28;20195;-76
2022/10/11 09:37:53;;;;;;;9.65;6.47;;;18.60;79.50;;;;;;5051686;28;20283;-75
2022/10/11 09:40:32;;;;;;;8.52;6.35;;;18.70;79.10;;;;;;5049043;28;20185;-75
2022/10/11 09:42:58;;;;;;;9.60;6.40;;;18.70;78.90;;;;;;5049976;28;20602;-74
2022/10/11 09:45:24;;;;;;;7.80;7.00;;;18.80;78.40;;;;;;5054690;28;20630;-74
2022/10/11 09:47:53;;;;;;;8.50;6.60;;;18.90;78.40;;;;;;5053359;28;20194;-75
2022/10/11 09:50:24;;;;;;;8.23;7.32;;;18.90;77.90;;;;;;5050308;28;20183;-74
2022/10/11 09:52:54;;;;;;;7.60;6.85;;;19.00;78.00;;;;;;5055466;28;20261;-75
2022/10/11 09:55:33;;;;;;;8.20;6.55;;;19.10;78.80;;;;;;5050139;28;20262;-75
2022/10/11 09:57:58;;;;;;;9.65;7.03;;;19.30;77.70;;;;;;5044451;28;20188;-76
2022/10/11 10:00:27;;;;;;;10.18;7.40;;;19.50;77.50;;;;;;5049543;28;20183;-75
2022/10/11 10:02:58;;;;;;;11.40;7.18;;;19.60;77.00;;;;;;5047981;28;20199;-74
2022/10/11 10:05:32;;;;;;;13.68;6.68;;;19.80;76.90;;;;;;5044988;28;20255;-75
2022/10/11 10:08:08;;;;;;;7.05;6.15;;;20.00;76.10;;;;;;5049060;28;20256;-74
2022/10/11 10:10:50;;;;;;;13.20;8.20;;;20.20;76.20;;;;;;5051305;28;20178;-75
2022/10/11 10:13:42;;;;;;;10.93;8.07;;;20.50;75.80;;;;;;5053884;28;20267;-75
2022/10/11 10:16:19;;;;;;;9.00;7.63;;;20.70;75.40;;;;;;5047333;28;20665;-75
2022/10/11 10:18:51;;;;;;;11.82;7.45;;;21.00;74.10;;;;;;5045411;28;20632;-75
2022/10/11 10:21:26;;;;;;;9.18;7.40;;;21.20;73.60;;;;;;5051564;28;20595;-76
2022/10/11 10:23:56;;;;;;;11.85;7.45;;;21.30;73.90;;;;;;5053353;28;20245;-76
2022/10/11 10:26:24;;;;;;;7.65;6.55;;;21.40;73.30;;;;;;5051154;28;20176;-76
2022/10/11 10:29:04;;;;;;;8.60;7.40;;;21.60;73.50;;;;;;5053621;28;20257;-76
2022/10/11 10:31:51;;;;;;;11.90;8.50;;;21.80;73.10;;;;;;5045994;28;20175;-75
2022/10/11 10:34:33;;;;;;;7.32;6.45;;;22.10;72.60;;;;;;5049550;28;20180;-75
2022/10/11 10:37:12;;;;;;;15.20;8.07;;;22.20;71.40;;;;;;5040995;28;20191;-73
2022/10/11 10:39:43;;;;;;;13.57;8.23;;;22.30;71.10;;;;;;5049265;28;20664;-74
2022/10/11 10:42:17;;;;;;;10.25;7.40;;;22.30;71.30;;;;;;5050794;28;20209;-75
2022/10/11 10:44:55;;;;;;;10.35;8.07;;;22.60;71.30;;;;;;5050340;28;20332;-74
2022/10/11 10:47:48;;;;;;;12.10;7.88;;;22.80;71.40;;;;;;5047543;28;20187;-74
2022/10/11 10:50:29;;;;;;;11.48;7.85;;;23.10;69.80;;;;;;5047779;28;20187;-74
2022/10/11 10:53:15;;;;;;;9.15;7.13;;;23.40;69.80;;;;;;5049195;28;20175;-74
2022/10/11 10:55:50;;;;;;;9.80;7.63;;;23.80;69.20;;;;;;5051374;28;20179;-74
2022/10/11 10:58:46;;;;;;;9.88;7.75;;;24.30;69.20;;;;;;5051208;28;20186;-74
2022/10/11 11:01:26;;;;;;;9.98;8.05;;;24.80;68.00;;;;;;5049294;28;20186;-74
2022/10/11 11:04:22;;;;;;;10.02;7.90;;;25.10;65.40;;;;;;5047313;28;20716;-74
2022/10/11 11:07:14;;;;;;;10.30;7.72;;;25.40;64.80;;;;;;5047087;28;20187;-75
2022/10/11 11:09:59;;;;;;;9.95;7.50;;;25.60;65.10;;;;;;5053068;28;20624;-75
2022/10/11 11:12:36;;;;;;;8.90;7.57;;;25.90;64.80;;;;;;5054181;28;20190;-75
2022/10/11 11:15:15;;;;;;;8.13;7.35;;;26.20;64.00;;;;;;5050626;28;20190;-74
2022/10/11 11:18:08;;;;;;;7.85;7.07;;;26.30;62.40;;;;;;5052759;28;20313;-74
2022/10/11 11:21:03;;;;;;;9.65;7.63;;;26.50;63.10;;;;;;5054968;28;20187;-74
2022/10/11 11:24:02;;;;;;;7.38;6.65;;;26.60;62.10;;;;;;5035866;28;20235;-74
2022/10/11 11:26:44;;;;;;;8.23;7.35;;;26.70;61.90;;;;;;5034285;28;20187;-73
2022/10/11 11:29:16;;;;;;;13.73;8.07;;;26.70;62.60;;;;;;5035515;28;20192;-74
2022/10/11 11:32:05;;;;;;;8.23;7.53;;;26.50;62.00;;;;;;5033261;28;20538;-74
2022/10/11 11:34:37;;;;;;;9.05;7.38;;;26.30;61.90;;;;;;5034770;28;20192;-74
2022/10/11 11:37:23;;;;;;;8.48;7.68;;;26.00;62.00;;;;;;5033646;28;20191;-75
2022/10/11 11:39:53;;;;;;;8.02;7.30;;;25.80;62.40;;;;;;5029496;28;20707;-74
2022/10/11 11:42:38;;;;;;;9.77;7.80;;;25.70;63.70;;;;;;5030234;28;20195;-75
2022/10/11 11:45:16;;;;;;;8.07;7.38;;;25.50;63.60;;;;;;5029385;28;20196;-74
2022/10/11 11:47:49;;;;;;;8.63;7.72;;;25.30;63.30;;;;;;5034907;28;20264;-73
2022/10/11 11:50:25;;;;;;;8.73;7.82;;;25.10;63.00;;;;;;5029402;28;20677;-75
2022/10/11 11:53:03;;;;;;;9.70;7.80;;;24.90;63.80;;;;;;5027774;28;20192;-74
2022/10/11 11:55:52;;;;;;;8.10;7.30;;;24.70;64.80;;;;;;5028729;28;20204;-75
2022/10/11 11:58:39;;;;;;;11.23;7.68;;;24.60;64.90;;;;;;5036269;28;20754;-73
2022/10/11 12:01:28;;;;;;;8.55;7.60;;;24.40;64.30;;;;;;5042832;28;20191;-75
2022/10/11 12:04:00;;;;;;;9.52;7.55;;;24.20;64.80;;;;;;5057751;28;20290;-74
2022/10/11 12:06:33;;;;;;;8.50;7.50;;;24.00;64.30;;;;;;5053717;28;20183;-74
2022/10/11 12:09:20;;;;;;;7.88;7.13;;;23.70;65.00;;;;;;5048865;28;21190;-74
2022/10/11 12:11:56;;;;;;;9.18;8.00;;;23.70;65.70;;;;;;5053241;28;20187;-75
2022/10/11 12:14:28;;;;;;;10.70;8.27;;;23.40;65.70;;;;;;5054055;28;20283;-75
2022/10/11 12:17:18;;;;;;;9.35;7.53;;;23.20;66.60;;;;;;5056615;28;20187;-74
2022/10/11 12:20:19;;;;;;;12.30;7.60;;;23.10;66.60;;;;;;5051163;28;20616;-74
2022/10/11 12:22:57;;;;;;;7.30;6.57;;;23.00;67.00;;;;;;5030974;28;20288;-74
2022/10/11 12:25:32;;;;;;;10.93;8.20;;;22.80;67.30;;;;;;5023933;28;20580;-74
2022/10/11 12:28:01;;;;;;;7.93;7.18;;;22.60;67.70;;;;;;5027060;28;20687;-74
2022/10/11 12:30:45;;;;;;;8.25;7.30;;;22.60;67.70;;;;;;5028015;28;20180;-74
2022/10/11 12:33:24;;;;;;;8.35;7.50;;;22.50;67.70;;;;;;5028282;28;21247;-73
2022/10/11 12:35:53;;;;;;;8.35;7.47;;;22.30;68.00;;;;;;5030274;28;20193;-74
2022/10/11 12:38:22;;;;;;;12.07;8.18;;;22.20;67.90;;;;;;5027849;28;20790;-74
2022/10/11 12:41:18;;;;;;;7.90;7.10;;;22.00;68.10;;;;;;5029358;28;20350;-73
2022/10/11 12:43:47;;;;;;;7.57;6.88;;;21.90;68.50;;;;;;5024013;28;20219;-74
2022/10/11 12:46:27;;;;;;;12.18;8.02;;;21.70;68.70;;;;;;5027586;28;20200;-73
2022/10/11 12:49:11;;;;;;;8.02;7.28;;;21.60;69.00;;;;;;5026833;28;20196;-74
2022/10/11 12:51:43;;;;;;;10.15;6.93;;;21.40;69.40;;;;;;5026918;28;20241;-74
2022/10/11 12:54:30;;;;;;;8.27;6.60;;;21.30;69.60;;;;;;5027407;28;20586;-74
2022/10/11 12:57:06;;;;;;;8.43;7.30;;;21.30;69.70;;;;;;5027226;28;20180;-74
2022/10/11 12:59:32;;;;;;;8.13;7.25;;;21.20;69.90;;;;;;5044890;28;20210;-74
2022/10/11 13:01:59;;;;;;;7.90;7.18;;;21.00;69.40;;;;;;5047286;28;20180;-73
2022/10/11 13:04:28;;;;;;;8.40;7.57;;;20.90;69.90;;;;;;5044525;28;20691;-75
2022/10/11 13:07:03;;;;;;;8.73;7.38;;;20.80;70.30;;;;;;5051587;28;20555;-74